sensor_id;sensor_type;location;lat;lon;timestamp;P1;durP1;ratioP1;P2;durP2;ratioP2
38083;SDS011;23894;51.466;7.444;2022-08-23T00:04:03;11.35;;;8.23;;
38083;SDS011;23894;51.466;7.444;2022-08-23T00:06:09;11.43;;;8.05;;
38083;SDS011;23894;51.466;7.444;2022-08-23T00:10:11;10.27;;;7.57;;
38083;SDS011;23894;51.466;7.444;2022-08-23T00:12:15;11.38;;;8.13;;
38083;SDS011;23894;51.466;7.444;2022-08-23T00:14:20;8.70;;;7.68;;
38083;SDS011;23894;51.466;7.444;2022-08-23T00:16:26;11.82;;;8.73;;
38083;SDS011;23894;51.466;7.444;2022-08-23T00:18:27;11.10;;;8.40;;
38083;SDS011;23894;51.466;7.444;2022-08-23T00:22:28;9.33;;;7.97;;
38083;SDS011;23894;51.466;7.444;2022-08-23T00:26:49;10.40;;;8.50;;
38083;SDS011;23894;51.466;7.444;2022-08-23T00:28:59;10.68;;;8.38;;
38083;SDS011;23894;51.466;7.444;2022-08-23T00:33:00;12.63;;;7.87;;
38083;SDS011;23894;51.466;7.444;2022-08-23T00:37:03;9.63;;;8.50;;
38083;SDS011;23894;51.466;7.444;2022-08-23T00:39:06;12.10;;;8.75;;
38083;SDS011;23894;51.466;7.444;2022-08-23T00:43:08;11.57;;;8.27;;
38083;SDS011;23894;51.466;7.444;2022-08-23T00:48:01;13.38;;;8.90;;
38083;SDS011;23894;51.466;7.444;2022-08-23T00:54:39;12.20;;;8.73;;
38083;SDS011;23894;51.466;7.444;2022-08-23T00:56:40;11.55;;;9.38;;
38083;SDS011;23894;51.466;7.444;2022-08-23T00:58:42;10.75;;;8.35;;
38083;SDS011;23894;51.466;7.444;2022-08-23T01:00:45;11.55;;;9.43;;
38083;SDS011;23894;51.466;7.444;2022-08-23T01:02:46;12.45;;;9.73;;
38083;SDS011;23894;51.466;7.444;2022-08-23T01:04:49;11.50;;;9.77;;
38083;SDS011;23894;51.466;7.444;2022-08-23T01:06:56;11.23;;;8.93;;
38083;SDS011;23894;51.466;7.444;2022-08-23T01:09:04;11.65;;;8.82;;
38083;SDS011;23894;51.466;7.444;2022-08-23T01:11:06;12.68;;;9.50;;
38083;SDS011;23894;51.466;7.444;2022-08-23T01:13:13;12.13;;;8.38;;
38083;SDS011;23894;51.466;7.444;2022-08-23T01:15:36;11.95;;;8.90;;
38083;SDS011;23894;51.466;7.444;2022-08-23T01:17:46;12.48;;;8.85;;
38083;SDS011;23894;51.466;7.444;2022-08-23T01:19:54;10.60;;;9.07;;
38083;SDS011;23894;51.466;7.444;2022-08-23T01:22:00;12.40;;;8.68;;
38083;SDS011;23894;51.466;7.444;2022-08-23T01:24:03;11.10;;;7.95;;
38083;SDS011;23894;51.466;7.444;2022-08-23T01:26:07;12.35;;;8.95;;
38083;SDS011;23894;51.466;7.444;2022-08-23T01:28:09;11.90;;;8.95;;
38083;SDS011;23894;51.466;7.444;2022-08-23T01:30:11;11.50;;;8.65;;
38083;SDS011;23894;51.466;7.444;2022-08-23T01:32:13;11.25;;;8.73;;
38083;SDS011;23894;51.466;7.444;2022-08-23T01:36:17;13.07;;;8.82;;
38083;SDS011;23894;51.466;7.444;2022-08-23T01:40:18;12.38;;;8.07;;
38083;SDS011;23894;51.466;7.444;2022-08-23T01:44:20;10.23;;;7.82;;
38083;SDS011;23894;51.466;7.444;2022-08-23T01:48:22;11.60;;;8.23;;
38083;SDS011;23894;51.466;7.444;2022-08-23T01:50:24;12.07;;;9.20;;
38083;SDS011;23894;51.466;7.444;2022-08-23T01:52:25;12.32;;;8.75;;
38083;SDS011;23894;51.466;7.444;2022-08-23T01:54:26;12.07;;;9.32;;
38083;SDS011;23894;51.466;7.444;2022-08-23T01:56:28;9.98;;;7.88;;
38083;SDS011;23894;51.466;7.444;2022-08-23T01:58:30;10.00;;;8.13;;
38083;SDS011;23894;51.466;7.444;2022-08-23T02:00:32;10.23;;;8.35;;
38083;SDS011;23894;51.466;7.444;2022-08-23T02:02:34;12.35;;;9.25;;
38083;SDS011;23894;51.466;7.444;2022-08-23T02:04:36;11.20;;;9.20;;
38083;SDS011;23894;51.466;7.444;2022-08-23T02:08:38;11.10;;;8.68;;
38083;SDS011;23894;51.466;7.444;2022-08-23T02:10:58;11.30;;;8.65;;
38083;SDS011;23894;51.466;7.444;2022-08-23T02:13:00;12.95;;;9.63;;
38083;SDS011;23894;51.466;7.444;2022-08-23T02:17:02;12.13;;;9.13;;
38083;SDS011;23894;51.466;7.444;2022-08-23T02:19:04;12.63;;;9.13;;
38083;SDS011;23894;51.466;7.444;2022-08-23T02:21:05;10.55;;;8.90;;
38083;SDS011;23894;51.466;7.444;2022-08-23T02:25:07;12.30;;;9.65;;
38083;SDS011;23894;51.466;7.444;2022-08-23T02:27:08;12.13;;;9.95;;
38083;SDS011;23894;51.466;7.444;2022-08-23T02:29:11;13.52;;;9.68;;
38083;SDS011;23894;51.466;7.444;2022-08-23T02:31:13;11.82;;;9.73;;
38083;SDS011;23894;51.466;7.444;2022-08-23T02:35:15;11.75;;;8.80;;
38083;SDS011;23894;51.466;7.444;2022-08-23T02:39:17;12.80;;;9.23;;
38083;SDS011;23894;51.466;7.444;2022-08-23T02:41:18;12.93;;;9.50;;
38083;SDS011;23894;51.466;7.444;2022-08-23T02:45:20;11.55;;;9.27;;
38083;SDS011;23894;51.466;7.444;2022-08-23T02:47:22;10.07;;;9.07;;
38083;SDS011;23894;51.466;7.444;2022-08-23T02:51:24;10.35;;;7.25;;
38083;SDS011;23894;51.466;7.444;2022-08-23T02:53:26;10.07;;;8.93;;
38083;SDS011;23894;51.466;7.444;2022-08-23T02:55:27;10.20;;;7.95;;
38083;SDS011;23894;51.466;7.444;2022-08-23T02:59:29;12.25;;;10.20;;
38083;SDS011;23894;51.466;7.444;2022-08-23T03:01:31;9.82;;;8.25;;
38083;SDS011;23894;51.466;7.444;2022-08-23T03:03:33;9.38;;;8.25;;
38083;SDS011;23894;51.466;7.444;2022-08-23T03:05:34;11.68;;;8.15;;
38083;SDS011;23894;51.466;7.444;2022-08-23T03:09:36;12.10;;;9.60;;
38083;SDS011;23894;51.466;7.444;2022-08-23T03:13:38;9.82;;;7.90;;
38083;SDS011;23894;51.466;7.444;2022-08-23T03:15:40;9.68;;;8.25;;
38083;SDS011;23894;51.466;7.444;2022-08-23T03:17:41;9.77;;;7.80;;
38083;SDS011;23894;51.466;7.444;2022-08-23T03:19:42;9.93;;;8.02;;
38083;SDS011;23894;51.466;7.444;2022-08-23T03:23:44;13.27;;;10.35;;
38083;SDS011;23894;51.466;7.444;2022-08-23T03:25:45;13.32;;;8.60;;
38083;SDS011;23894;51.466;7.444;2022-08-23T03:29:48;9.43;;;7.97;;
38083;SDS011;23894;51.466;7.444;2022-08-23T03:31:49;11.45;;;7.93;;
38083;SDS011;23894;51.466;7.444;2022-08-23T03:33:50;10.35;;;8.38;;
38083;SDS011;23894;51.466;7.444;2022-08-23T03:37:52;9.75;;;8.07;;
38083;SDS011;23894;51.466;7.444;2022-08-23T03:39:53;10.40;;;8.35;;
38083;SDS011;23894;51.466;7.444;2022-08-23T03:41:54;10.60;;;8.18;;
38083;SDS011;23894;51.466;7.444;2022-08-23T03:45:56;10.88;;;9.20;;
38083;SDS011;23894;51.466;7.444;2022-08-23T03:47:58;11.30;;;9.40;;
38083;SDS011;23894;51.466;7.444;2022-08-23T03:51:59;11.23;;;8.13;;
38083;SDS011;23894;51.466;7.444;2022-08-23T03:54:01;11.82;;;9.52;;
38083;SDS011;23894;51.466;7.444;2022-08-23T03:56:02;9.65;;;8.50;;
38083;SDS011;23894;51.466;7.444;2022-08-23T03:58:03;9.93;;;8.25;;
38083;SDS011;23894;51.466;7.444;2022-08-23T04:00:05;13.82;;;9.13;;
38083;SDS011;23894;51.466;7.444;2022-08-23T04:02:08;12.27;;;9.02;;
38083;SDS011;23894;51.466;7.444;2022-08-23T04:04:10;11.77;;;8.70;;
38083;SDS011;23894;51.466;7.444;2022-08-23T04:08:11;10.93;;;9.35;;
38083;SDS011;23894;51.466;7.444;2022-08-23T04:12:14;9.80;;;7.78;;
38083;SDS011;23894;51.466;7.444;2022-08-23T04:14:15;11.38;;;8.60;;
38083;SDS011;23894;51.466;7.444;2022-08-23T04:16:16;11.73;;;8.40;;
38083;SDS011;23894;51.466;7.444;2022-08-23T04:18:17;13.68;;;9.90;;
38083;SDS011;23894;51.466;7.444;2022-08-23T04:20:20;10.35;;;8.35;;
38083;SDS011;23894;51.466;7.444;2022-08-23T04:22:22;9.63;;;8.57;;
38083;SDS011;23894;51.466;7.444;2022-08-23T04:24:25;10.85;;;8.63;;
38083;SDS011;23894;51.466;7.444;2022-08-23T04:26:26;11.95;;;9.27;;
38083;SDS011;23894;51.466;7.444;2022-08-23T04:28:28;12.48;;;9.40;;
38083;SDS011;23894;51.466;7.444;2022-08-23T04:30:31;12.43;;;9.02;;
38083;SDS011;23894;51.466;7.444;2022-08-23T04:32:33;13.43;;;9.18;;
38083;SDS011;23894;51.466;7.444;2022-08-23T04:34:36;12.25;;;9.27;;
38083;SDS011;23894;51.466;7.444;2022-08-23T04:36:40;11.32;;;9.02;;
38083;SDS011;23894;51.466;7.444;2022-08-23T04:38:43;12.73;;;9.60;;
38083;SDS011;23894;51.466;7.444;2022-08-23T04:40:45;12.57;;;9.40;;
38083;SDS011;23894;51.466;7.444;2022-08-23T04:43:05;11.38;;;9.85;;
38083;SDS011;23894;51.466;7.444;2022-08-23T04:45:07;14.50;;;9.45;;
38083;SDS011;23894;51.466;7.444;2022-08-23T04:47:11;12.30;;;9.32;;
38083;SDS011;23894;51.466;7.444;2022-08-23T04:49:13;12.55;;;10.27;;
38083;SDS011;23894;51.466;7.444;2022-08-23T04:51:15;11.13;;;8.25;;
38083;SDS011;23894;51.466;7.444;2022-08-23T04:53:18;13.48;;;10.70;;
38083;SDS011;23894;51.466;7.444;2022-08-23T04:55:19;11.73;;;9.73;;
38083;SDS011;23894;51.466;7.444;2022-08-23T04:57:22;13.63;;;10.15;;
38083;SDS011;23894;51.466;7.444;2022-08-23T04:59:25;10.63;;;9.55;;
38083;SDS011;23894;51.466;7.444;2022-08-23T05:01:26;12.45;;;9.45;;
38083;SDS011;23894;51.466;7.444;2022-08-23T05:05:32;13.02;;;10.35;;
38083;SDS011;23894;51.466;7.444;2022-08-23T05:07:33;13.13;;;10.65;;
38083;SDS011;23894;51.466;7.444;2022-08-23T05:11:37;12.55;;;10.00;;
38083;SDS011;23894;51.466;7.444;2022-08-23T05:13:40;11.25;;;10.05;;
38083;SDS011;23894;51.466;7.444;2022-08-23T05:15:42;11.18;;;9.98;;
38083;SDS011;23894;51.466;7.444;2022-08-23T05:17:43;14.35;;;11.05;;
38083;SDS011;23894;51.466;7.444;2022-08-23T05:19:44;12.90;;;10.90;;
38083;SDS011;23894;51.466;7.444;2022-08-23T05:21:45;11.75;;;9.50;;
38083;SDS011;23894;51.466;7.444;2022-08-23T05:25:47;13.95;;;10.60;;
38083;SDS011;23894;51.466;7.444;2022-08-23T05:29:49;11.35;;;10.05;;
38083;SDS011;23894;51.466;7.444;2022-08-23T05:31:53;12.27;;;11.02;;
38083;SDS011;23894;51.466;7.444;2022-08-23T05:33:56;12.10;;;10.90;;
38083;SDS011;23894;51.466;7.444;2022-08-23T05:35:57;12.18;;;10.82;;
38083;SDS011;23894;51.466;7.444;2022-08-23T05:37:59;13.70;;;11.82;;
38083;SDS011;23894;51.466;7.444;2022-08-23T05:40:00;11.93;;;10.68;;
38083;SDS011;23894;51.466;7.444;2022-08-23T05:42:01;12.90;;;11.27;;
38083;SDS011;23894;51.466;7.444;2022-08-23T05:50:05;12.63;;;10.73;;
38083;SDS011;23894;51.466;7.444;2022-08-23T05:52:07;12.93;;;10.85;;
38083;SDS011;23894;51.466;7.444;2022-08-23T05:54:08;12.10;;;10.18;;
38083;SDS011;23894;51.466;7.444;2022-08-23T05:56:15;14.52;;;10.52;;
38083;SDS011;23894;51.466;7.444;2022-08-23T05:58:16;11.35;;;9.27;;
38083;SDS011;23894;51.466;7.444;2022-08-23T06:02:18;12.82;;;10.05;;
38083;SDS011;23894;51.466;7.444;2022-08-23T06:06:20;15.23;;;11.40;;
38083;SDS011;23894;51.466;7.444;2022-08-23T06:08:21;13.70;;;11.20;;
38083;SDS011;23894;51.466;7.444;2022-08-23T06:10:22;15.25;;;12.77;;
38083;SDS011;23894;51.466;7.444;2022-08-23T06:12:23;18.17;;;11.57;;
38083;SDS011;23894;51.466;7.444;2022-08-23T06:16:29;14.27;;;10.82;;
38083;SDS011;23894;51.466;7.444;2022-08-23T06:18:30;16.35;;;11.52;;
38083;SDS011;23894;51.466;7.444;2022-08-23T06:22:32;13.88;;;10.13;;
38083;SDS011;23894;51.466;7.444;2022-08-23T06:26:35;12.15;;;10.63;;
38083;SDS011;23894;51.466;7.444;2022-08-23T06:28:37;13.55;;;10.38;;
38083;SDS011;23894;51.466;7.444;2022-08-23T06:30:38;12.93;;;10.95;;
38083;SDS011;23894;51.466;7.444;2022-08-23T06:34:40;11.75;;;9.30;;
38083;SDS011;23894;51.466;7.444;2022-08-23T06:38:41;12.10;;;8.65;;
38083;SDS011;23894;51.466;7.444;2022-08-23T06:40:45;11.93;;;9.23;;
38083;SDS011;23894;51.466;7.444;2022-08-23T06:46:49;12.05;;;7.50;;
38083;SDS011;23894;51.466;7.444;2022-08-23T06:50:52;11.55;;;7.45;;
38083;SDS011;23894;51.466;7.444;2022-08-23T06:54:53;12.68;;;7.40;;
38083;SDS011;23894;51.466;7.444;2022-08-23T06:58:56;8.75;;;6.07;;
38083;SDS011;23894;51.466;7.444;2022-08-23T07:03:16;10.32;;;5.65;;
38083;SDS011;23894;51.466;7.444;2022-08-23T07:07:18;11.02;;;4.90;;
38083;SDS011;23894;51.466;7.444;2022-08-23T07:11:20;10.48;;;4.88;;
38083;SDS011;23894;51.466;7.444;2022-08-23T07:13:22;7.75;;;3.60;;
38083;SDS011;23894;51.466;7.444;2022-08-23T07:17:24;7.43;;;3.90;;
38083;SDS011;23894;51.466;7.444;2022-08-23T07:19:26;7.95;;;3.90;;
38083;SDS011;23894;51.466;7.444;2022-08-23T07:21:28;8.15;;;3.90;;
38083;SDS011;23894;51.466;7.444;2022-08-23T07:23:29;8.80;;;4.38;;
38083;SDS011;23894;51.466;7.444;2022-08-23T07:25:32;7.50;;;4.00;;
38083;SDS011;23894;51.466;7.444;2022-08-23T07:29:37;6.82;;;3.70;;
38083;SDS011;23894;51.466;7.444;2022-08-23T07:31:43;8.77;;;3.72;;
38083;SDS011;23894;51.466;7.444;2022-08-23T07:33:44;8.65;;;3.60;;
38083;SDS011;23894;51.466;7.444;2022-08-23T07:35:46;7.47;;;3.70;;
38083;SDS011;23894;51.466;7.444;2022-08-23T07:37:47;7.07;;;3.40;;
38083;SDS011;23894;51.466;7.444;2022-08-23T07:41:49;7.97;;;3.22;;
38083;SDS011;23894;51.466;7.444;2022-08-23T07:43:51;7.43;;;3.40;;
38083;SDS011;23894;51.466;7.444;2022-08-23T07:45:53;11.02;;;3.60;;
38083;SDS011;23894;51.466;7.444;2022-08-23T07:49:55;7.13;;;3.20;;
38083;SDS011;23894;51.466;7.444;2022-08-23T07:51:56;8.48;;;3.78;;
38083;SDS011;23894;51.466;7.444;2022-08-23T07:55:58;7.35;;;3.33;;
38083;SDS011;23894;51.466;7.444;2022-08-23T07:58:03;7.30;;;3.05;;
38083;SDS011;23894;51.466;7.444;2022-08-23T08:02:05;6.70;;;3.35;;
38083;SDS011;23894;51.466;7.444;2022-08-23T08:06:08;6.57;;;3.20;;
38083;SDS011;23894;51.466;7.444;2022-08-23T08:08:11;6.70;;;3.00;;
38083;SDS011;23894;51.466;7.444;2022-08-23T08:12:13;8.02;;;3.33;;
38083;SDS011;23894;51.466;7.444;2022-08-23T08:16:20;7.45;;;3.05;;
38083;SDS011;23894;51.466;7.444;2022-08-23T08:18:21;7.40;;;3.33;;
38083;SDS011;23894;51.466;7.444;2022-08-23T08:22:26;7.20;;;3.47;;
38083;SDS011;23894;51.466;7.444;2022-08-23T08:26:28;7.70;;;3.20;;
38083;SDS011;23894;51.466;7.444;2022-08-23T08:28:29;6.22;;;3.22;;
38083;SDS011;23894;51.466;7.444;2022-08-23T08:30:30;8.68;;;3.15;;
38083;SDS011;23894;51.466;7.444;2022-08-23T08:34:32;6.15;;;3.05;;
38083;SDS011;23894;51.466;7.444;2022-08-23T08:36:37;7.45;;;3.63;;
38083;SDS011;23894;51.466;7.444;2022-08-23T08:38:38;7.32;;;3.55;;
38083;SDS011;23894;51.466;7.444;2022-08-23T08:40:40;8.75;;;3.70;;
38083;SDS011;23894;51.466;7.444;2022-08-23T08:42:47;6.65;;;3.20;;
38083;SDS011;23894;51.466;7.444;2022-08-23T08:44:51;7.55;;;3.40;;
38083;SDS011;23894;51.466;7.444;2022-08-23T08:46:53;9.00;;;3.05;;
38083;SDS011;23894;51.466;7.444;2022-08-23T08:48:56;9.05;;;5.93;;
38083;SDS011;23894;51.466;7.444;2022-08-23T08:51:00;7.18;;;3.83;;
38083;SDS011;23894;51.466;7.444;2022-08-23T08:53:14;6.60;;;3.40;;
38083;SDS011;23894;51.466;7.444;2022-08-23T08:55:21;7.57;;;3.22;;
38083;SDS011;23894;51.466;7.444;2022-08-23T08:57:23;7.95;;;3.75;;
38083;SDS011;23894;51.466;7.444;2022-08-23T08:59:32;9.75;;;3.55;;
38083;SDS011;23894;51.466;7.444;2022-08-23T09:01:39;8.52;;;3.25;;
38083;SDS011;23894;51.466;7.444;2022-08-23T09:03:40;7.50;;;3.25;;
38083;SDS011;23894;51.466;7.444;2022-08-23T09:05:46;7.10;;;3.13;;
38083;SDS011;23894;51.466;7.444;2022-08-23T09:10:00;7.68;;;2.92;;
38083;SDS011;23894;51.466;7.444;2022-08-23T09:12:14;6.75;;;3.35;;
38083;SDS011;23894;51.466;7.444;2022-08-23T09:16:29;7.72;;;2.97;;
38083;SDS011;23894;51.466;7.444;2022-08-23T09:18:34;6.57;;;2.92;;
38083;SDS011;23894;51.466;7.444;2022-08-23T09:20:36;20.70;;;4.80;;
38083;SDS011;23894;51.466;7.444;2022-08-23T09:22:44;13.75;;;3.90;;
38083;SDS011;23894;51.466;7.444;2022-08-23T09:24:46;9.82;;;3.63;;
38083;SDS011;23894;51.466;7.444;2022-08-23T09:26:47;7.63;;;2.80;;
38083;SDS011;23894;51.466;7.444;2022-08-23T09:28:50;9.27;;;3.50;;
38083;SDS011;23894;51.466;7.444;2022-08-23T09:30:56;7.10;;;3.40;;
38083;SDS011;23894;51.466;7.444;2022-08-23T09:32:59;7.30;;;3.30;;
38083;SDS011;23894;51.466;7.444;2022-08-23T09:35:15;10.27;;;3.20;;
38083;SDS011;23894;51.466;7.444;2022-08-23T09:37:23;8.48;;;3.22;;
38083;SDS011;23894;51.466;7.444;2022-08-23T09:39:30;7.53;;;3.33;;
38083;SDS011;23894;51.466;7.444;2022-08-23T09:41:32;7.55;;;3.15;;
38083;SDS011;23894;51.466;7.444;2022-08-23T09:43:41;7.85;;;3.15;;
38083;SDS011;23894;51.466;7.444;2022-08-23T09:47:49;21.52;;;5.50;;
38083;SDS011;23894;51.466;7.444;2022-08-23T09:49:50;8.13;;;3.35;;
38083;SDS011;23894;51.466;7.444;2022-08-23T09:51:53;7.05;;;3.47;;
38083;SDS011;23894;51.466;7.444;2022-08-23T09:56:10;6.25;;;2.85;;
38083;SDS011;23894;51.466;7.444;2022-08-23T09:58:35;7.40;;;3.20;;
38083;SDS011;23894;51.466;7.444;2022-08-23T10:00:39;8.60;;;2.90;;
38083;SDS011;23894;51.466;7.444;2022-08-23T10:02:40;6.63;;;3.20;;
38083;SDS011;23894;51.466;7.444;2022-08-23T10:04:43;7.55;;;3.15;;
38083;SDS011;23894;51.466;7.444;2022-08-23T10:06:46;8.82;;;3.42;;
38083;SDS011;23894;51.466;7.444;2022-08-23T10:08:52;10.30;;;3.28;;
38083;SDS011;23894;51.466;7.444;2022-08-23T10:11:16;8.65;;;3.72;;
38083;SDS011;23894;51.466;7.444;2022-08-23T10:13:16;7.18;;;3.17;;
38083;SDS011;23894;51.466;7.444;2022-08-23T10:15:17;9.95;;;3.63;;
38083;SDS011;23894;51.466;7.444;2022-08-23T10:19:48;6.63;;;3.10;;
38083;SDS011;23894;51.466;7.444;2022-08-23T10:22:10;7.75;;;3.22;;
38083;SDS011;23894;51.466;7.444;2022-08-23T10:26:20;6.00;;;3.10;;
38083;SDS011;23894;51.466;7.444;2022-08-23T10:32:51;7.38;;;3.50;;
38083;SDS011;23894;51.466;7.444;2022-08-23T10:37:41;7.43;;;3.00;;
38083;SDS011;23894;51.466;7.444;2022-08-23T10:42:04;8.13;;;3.38;;
38083;SDS011;23894;51.466;7.444;2022-08-23T10:46:08;6.68;;;2.90;;
38083;SDS011;23894;51.466;7.444;2022-08-23T10:50:15;6.85;;;3.33;;
38083;SDS011;23894;51.466;7.444;2022-08-23T10:52:22;7.05;;;3.10;;
38083;SDS011;23894;51.466;7.444;2022-08-23T10:54:32;7.22;;;3.10;;
38083;SDS011;23894;51.466;7.444;2022-08-23T10:56:44;7.05;;;3.25;;
38083;SDS011;23894;51.466;7.444;2022-08-23T10:58:50;6.07;;;3.10;;
38083;SDS011;23894;51.466;7.444;2022-08-23T11:00:51;7.90;;;3.20;;
38083;SDS011;23894;51.466;7.444;2022-08-23T11:03:03;7.45;;;3.17;;
38083;SDS011;23894;51.466;7.444;2022-08-23T11:05:19;8.45;;;3.05;;
38083;SDS011;23894;51.466;7.444;2022-08-23T11:09:56;10.07;;;3.20;;
38083;SDS011;23894;51.466;7.444;2022-08-23T11:12:10;6.22;;;3.25;;
38083;SDS011;23894;51.466;7.444;2022-08-23T11:14:24;8.05;;;3.08;;
38083;SDS011;23894;51.466;7.444;2022-08-23T11:16:28;10.98;;;3.05;;
38083;SDS011;23894;51.466;7.444;2022-08-23T11:25:04;7.55;;;3.67;;
38083;SDS011;23894;51.466;7.444;2022-08-23T11:27:05;8.25;;;2.90;;
38083;SDS011;23894;51.466;7.444;2022-08-23T11:31:19;7.85;;;3.65;;
38083;SDS011;23894;51.466;7.444;2022-08-23T11:33:25;8.02;;;3.35;;
38083;SDS011;23894;51.466;7.444;2022-08-23T11:35:31;7.05;;;2.92;;
38083;SDS011;23894;51.466;7.444;2022-08-23T11:41:59;7.43;;;3.00;;
38083;SDS011;23894;51.466;7.444;2022-08-23T11:46:12;9.75;;;3.38;;
38083;SDS011;23894;51.466;7.444;2022-08-23T11:51:10;6.85;;;2.80;;
38083;SDS011;23894;51.466;7.444;2022-08-23T11:52:54;6.68;;;2.47;;
38083;SDS011;23894;51.466;7.444;2022-08-23T12:00:00;5.22;;;2.20;;
38083;SDS011;23894;51.466;7.444;2022-08-23T12:02:40;8.70;;;2.35;;
38083;SDS011;23894;51.466;7.444;2022-08-23T12:04:47;5.97;;;2.42;;
38083;SDS011;23894;51.466;7.444;2022-08-23T12:06:53;5.25;;;2.30;;
38083;SDS011;23894;51.466;7.444;2022-08-23T12:11:22;7.50;;;2.50;;
38083;SDS011;23894;51.466;7.444;2022-08-23T12:13:28;5.25;;;2.17;;
38083;SDS011;23894;51.466;7.444;2022-08-23T12:18:24;6.22;;;2.42;;
38083;SDS011;23894;51.466;7.444;2022-08-23T12:20:26;7.63;;;2.47;;
38083;SDS011;23894;51.466;7.444;2022-08-23T12:22:29;5.60;;;2.20;;
38083;SDS011;23894;51.466;7.444;2022-08-23T12:24:53;8.40;;;2.50;;
38083;SDS011;23894;51.466;7.444;2022-08-23T12:27:24;6.50;;;2.25;;
38083;SDS011;23894;51.466;7.444;2022-08-23T12:29:38;5.20;;;2.15;;
38083;SDS011;23894;51.466;7.444;2022-08-23T12:34:18;6.85;;;2.30;;
38083;SDS011;23894;51.466;7.444;2022-08-23T12:39:25;6.38;;;2.25;;
38083;SDS011;23894;51.466;7.444;2022-08-23T12:41:31;4.95;;;2.20;;
38083;SDS011;23894;51.466;7.444;2022-08-23T12:44:08;8.82;;;2.00;;
38083;SDS011;23894;51.466;7.444;2022-08-23T12:46:09;7.85;;;2.10;;
38083;SDS011;23894;51.466;7.444;2022-08-23T12:48:14;6.55;;;1.90;;
38083;SDS011;23894;51.466;7.444;2022-08-23T12:50:41;7.22;;;2.10;;
38083;SDS011;23894;51.466;7.444;2022-08-23T12:52:42;6.50;;;1.92;;
38083;SDS011;23894;51.466;7.444;2022-08-23T12:54:56;6.30;;;2.00;;
38083;SDS011;23894;51.466;7.444;2022-08-23T12:56:57;6.22;;;2.10;;
38083;SDS011;23894;51.466;7.444;2022-08-23T12:59:00;6.95;;;2.10;;
38083;SDS011;23894;51.466;7.444;2022-08-23T13:01:25;5.50;;;2.20;;
38083;SDS011;23894;51.466;7.444;2022-08-23T13:03:38;6.32;;;1.95;;
38083;SDS011;23894;51.466;7.444;2022-08-23T13:05:45;5.80;;;2.00;;
38083;SDS011;23894;51.466;7.444;2022-08-23T13:07:49;4.97;;;1.90;;
38083;SDS011;23894;51.466;7.444;2022-08-23T13:09:51;5.78;;;2.25;;
38083;SDS011;23894;51.466;7.444;2022-08-23T13:11:55;5.28;;;2.30;;
38083;SDS011;23894;51.466;7.444;2022-08-23T13:14:20;7.28;;;2.05;;
38083;SDS011;23894;51.466;7.444;2022-08-23T13:16:43;4.97;;;1.95;;
38083;SDS011;23894;51.466;7.444;2022-08-23T13:18:44;5.07;;;1.95;;
38083;SDS011;23894;51.466;7.444;2022-08-23T13:20:47;4.70;;;1.92;;
38083;SDS011;23894;51.466;7.444;2022-08-23T13:31:14;5.38;;;2.30;;
38083;SDS011;23894;51.466;7.444;2022-08-23T13:33:16;6.18;;;2.17;;
38083;SDS011;23894;51.466;7.444;2022-08-23T13:37:44;5.70;;;2.20;;
38083;SDS011;23894;51.466;7.444;2022-08-23T13:39:46;5.80;;;2.10;;
38083;SDS011;23894;51.466;7.444;2022-08-23T13:41:50;7.32;;;2.55;;
38083;SDS011;23894;51.466;7.444;2022-08-23T13:43:50;4.93;;;2.17;;
38083;SDS011;23894;51.466;7.444;2022-08-23T13:45:52;6.82;;;2.40;;
38083;SDS011;23894;51.466;7.444;2022-08-23T13:47:59;8.13;;;2.45;;
38083;SDS011;23894;51.466;7.444;2022-08-23T13:50:24;5.82;;;2.13;;
38083;SDS011;23894;51.466;7.444;2022-08-23T13:52:26;6.15;;;2.10;;
38083;SDS011;23894;51.466;7.444;2022-08-23T13:54:28;5.03;;;2.35;;
38083;SDS011;23894;51.466;7.444;2022-08-23T13:56:30;5.22;;;2.10;;
38083;SDS011;23894;51.466;7.444;2022-08-23T13:58:37;8.52;;;2.25;;
38083;SDS011;23894;51.466;7.444;2022-08-23T14:00:37;6.55;;;2.40;;
38083;SDS011;23894;51.466;7.444;2022-08-23T14:02:38;4.85;;;2.13;;
38083;SDS011;23894;51.466;7.444;2022-08-23T14:04:39;6.80;;;2.17;;
38083;SDS011;23894;51.466;7.444;2022-08-23T14:06:41;6.32;;;2.10;;
38083;SDS011;23894;51.466;7.444;2022-08-23T14:08:41;4.85;;;1.92;;
38083;SDS011;23894;51.466;7.444;2022-08-23T14:10:42;6.05;;;2.25;;
38083;SDS011;23894;51.466;7.444;2022-08-23T14:12:45;6.82;;;2.30;;
38083;SDS011;23894;51.466;7.444;2022-08-23T14:14:47;6.75;;;2.58;;
38083;SDS011;23894;51.466;7.444;2022-08-23T14:16:48;6.45;;;2.40;;
38083;SDS011;23894;51.466;7.444;2022-08-23T14:18:49;5.53;;;2.35;;
38083;SDS011;23894;51.466;7.444;2022-08-23T14:20:50;6.45;;;2.60;;
38083;SDS011;23894;51.466;7.444;2022-08-23T14:22:50;5.47;;;2.25;;
38083;SDS011;23894;51.466;7.444;2022-08-23T14:24:51;6.68;;;2.40;;
38083;SDS011;23894;51.466;7.444;2022-08-23T14:26:52;6.13;;;2.45;;
38083;SDS011;23894;51.466;7.444;2022-08-23T14:28:53;5.07;;;2.20;;
38083;SDS011;23894;51.466;7.444;2022-08-23T14:30:54;6.97;;;2.13;;
38083;SDS011;23894;51.466;7.444;2022-08-23T14:32:56;5.53;;;2.25;;
38083;SDS011;23894;51.466;7.444;2022-08-23T14:34:57;5.82;;;2.42;;
38083;SDS011;23894;51.466;7.444;2022-08-23T14:36:58;4.82;;;2.33;;
38083;SDS011;23894;51.466;7.444;2022-08-23T14:38:59;6.65;;;2.40;;
38083;SDS011;23894;51.466;7.444;2022-08-23T14:41:01;5.15;;;2.45;;
38083;SDS011;23894;51.466;7.444;2022-08-23T14:43:04;7.03;;;2.47;;
38083;SDS011;23894;51.466;7.444;2022-08-23T14:45:05;5.15;;;2.20;;
38083;SDS011;23894;51.466;7.444;2022-08-23T14:47:08;4.85;;;2.10;;
38083;SDS011;23894;51.466;7.444;2022-08-23T14:49:09;5.00;;;1.80;;
38083;SDS011;23894;51.466;7.444;2022-08-23T14:51:18;5.65;;;2.03;;
38083;SDS011;23894;51.466;7.444;2022-08-23T14:53:25;4.38;;;2.10;;
38083;SDS011;23894;51.466;7.444;2022-08-23T14:55:27;5.10;;;2.05;;
38083;SDS011;23894;51.466;7.444;2022-08-23T14:57:28;7.65;;;2.38;;
38083;SDS011;23894;51.466;7.444;2022-08-23T14:59:28;5.10;;;2.22;;
38083;SDS011;23894;51.466;7.444;2022-08-23T15:01:29;5.28;;;2.22;;
38083;SDS011;23894;51.466;7.444;2022-08-23T15:03:29;4.53;;;2.10;;
38083;SDS011;23894;51.466;7.444;2022-08-23T15:05:30;5.72;;;2.20;;
38083;SDS011;23894;51.466;7.444;2022-08-23T15:07:31;6.13;;;2.13;;
38083;SDS011;23894;51.466;7.444;2022-08-23T15:09:31;5.10;;;2.38;;
38083;SDS011;23894;51.466;7.444;2022-08-23T15:11:33;6.25;;;2.10;;
38083;SDS011;23894;51.466;7.444;2022-08-23T15:13:34;5.25;;;2.30;;
38083;SDS011;23894;51.466;7.444;2022-08-23T15:15:35;7.45;;;2.25;;
38083;SDS011;23894;51.466;7.444;2022-08-23T15:17:42;6.25;;;2.30;;
38083;SDS011;23894;51.466;7.444;2022-08-23T15:19:47;6.93;;;2.30;;
38083;SDS011;23894;51.466;7.444;2022-08-23T15:21:48;4.15;;;1.90;;
38083;SDS011;23894;51.466;7.444;2022-08-23T15:23:50;4.97;;;2.08;;
38083;SDS011;23894;51.466;7.444;2022-08-23T15:25:52;4.38;;;1.90;;
38083;SDS011;23894;51.466;7.444;2022-08-23T15:27:54;6.00;;;2.30;;
38083;SDS011;23894;51.466;7.444;2022-08-23T15:29:56;6.60;;;2.75;;
38083;SDS011;23894;51.466;7.444;2022-08-23T15:31:58;7.45;;;2.42;;
38083;SDS011;23894;51.466;7.444;2022-08-23T15:34:00;5.88;;;2.25;;
38083;SDS011;23894;51.466;7.444;2022-08-23T15:36:02;6.65;;;2.67;;
38083;SDS011;23894;51.466;7.444;2022-08-23T15:38:05;7.20;;;2.40;;
38083;SDS011;23894;51.466;7.444;2022-08-23T15:40:08;8.48;;;2.80;;
38083;SDS011;23894;51.466;7.444;2022-08-23T15:42:11;8.27;;;2.60;;
38083;SDS011;23894;51.466;7.444;2022-08-23T15:44:11;6.10;;;2.60;;
38083;SDS011;23894;51.466;7.444;2022-08-23T15:46:18;6.07;;;2.35;;
38083;SDS011;23894;51.466;7.444;2022-08-23T15:48:23;6.30;;;2.40;;